createdAt,value
2023-05-03T00:00:13.924Z,9.60
2023-05-03T00:02:45.044Z,9.60
2023-05-03T00:05:15.272Z,9.87
2023-05-03T00:07:45.062Z,9.67
2023-05-03T00:10:16.027Z,9.37
2023-05-03T00:12:45.564Z,9.57
2023-05-03T00:15:15.817Z,9.40
2023-05-03T00:17:44.566Z,9.90
2023-05-03T00:20:13.501Z,9.67
2023-05-03T00:22:42.305Z,10.40
2023-05-03T00:25:11.490Z,10.17
2023-05-03T00:27:40.225Z,10.43
2023-05-03T00:30:10.924Z,10.50
2023-05-03T00:32:41.116Z,10.40
2023-05-03T00:35:10.205Z,10.27
2023-05-03T00:37:39.181Z,10.23
2023-05-03T00:40:09.849Z,10.60
2023-05-03T00:42:38.702Z,10.50
2023-05-03T00:45:08.506Z,10.43
2023-05-03T00:47:38.205Z,10.70
2023-05-03T00:50:11.909Z,10.93
2023-05-03T00:52:41.934Z,10.87
2023-05-03T00:55:11.646Z,10.83
2023-05-03T00:57:40.922Z,10.83
2023-05-03T01:00:10.869Z,10.53
2023-05-03T01:02:39.786Z,11.00
2023-05-03T01:05:11.308Z,11.27
2023-05-03T01:07:49.698Z,11.50
2023-05-03T01:10:28.174Z,11.80
2023-05-03T01:13:03.307Z,11.43
2023-05-03T01:15:45.676Z,11.73
2023-05-03T01:18:17.697Z,12.33
2023-05-03T01:20:50.363Z,12.47
2023-05-03T01:23:31.652Z,12.33
2023-05-03T01:26:02.006Z,12.13
2023-05-03T01:28:30.555Z,12.50
2023-05-03T01:31:00.562Z,12.67
2023-05-03T01:33:38.642Z,13.67
2023-05-03T01:36:15.038Z,12.87
2023-05-03T01:38:44.483Z,13.00
2023-05-03T01:41:18.039Z,13.47
2023-05-03T01:43:48.132Z,13.53
2023-05-03T01:46:17.175Z,13.30
2023-05-03T01:48:46.642Z,13.53
2023-05-03T01:51:15.499Z,13.97
2023-05-03T01:53:45.006Z,13.67
2023-05-03T01:56:15.328Z,14.07
2023-05-03T01:58:44.113Z,13.93
2023-05-03T02:01:12.884Z,13.47
2023-05-03T02:03:41.826Z,13.07
2023-05-03T02:06:11.689Z,13.80
2023-05-03T02:08:40.468Z,14.10
2023-05-03T02:11:09.312Z,14.37
2023-05-03T02:13:40.133Z,13.50
2023-05-03T02:16:09.691Z,13.17
2023-05-03T02:18:38.454Z,13.07
2023-05-03T02:21:07.293Z,13.83
2023-05-03T02:23:36.248Z,14.00
2023-05-03T02:26:04.948Z,14.50
2023-05-03T02:28:34.555Z,13.50
2023-05-03T02:31:06.849Z,13.53
2023-05-03T02:33:35.858Z,13.40
2023-05-03T02:36:04.675Z,14.37
2023-05-03T02:38:33.451Z,13.53
2023-05-03T02:41:02.288Z,13.83
2023-05-03T02:43:32.294Z,13.60
2023-05-03T02:46:01.005Z,13.80
2023-05-03T02:48:31.246Z,13.00
2023-05-03T02:50:59.921Z,13.57
2023-05-03T02:53:28.553Z,13.97
2023-05-03T02:56:01.546Z,13.90
2023-05-03T02:58:30.427Z,13.70
2023-05-03T03:01:00.585Z,14.17
2023-05-03T03:03:33.822Z,14.07
2023-05-03T03:06:02.570Z,14.03
2023-05-03T03:08:31.367Z,14.10
2023-05-03T03:11:03.819Z,14.47
2023-05-03T03:13:32.670Z,13.23
2023-05-03T03:16:02.700Z,14.27
2023-05-03T03:18:34.435Z,14.43
2023-05-03T03:21:04.995Z,14.03
2023-05-03T03:23:34.933Z,13.67
2023-05-03T03:26:03.737Z,14.23
2023-05-03T03:28:32.503Z,13.20
2023-05-03T03:31:03.744Z,13.40
2023-05-03T03:33:34.278Z,14.10
2023-05-03T03:36:10.363Z,13.77
2023-05-03T03:38:42.728Z,13.77
2023-05-03T03:41:13.254Z,14.43
2023-05-03T03:43:42.388Z,14.10
2023-05-03T03:46:17.737Z,13.57
2023-05-03T03:48:49.680Z,13.27
2023-05-03T03:51:18.266Z,13.57
2023-05-03T03:53:49.227Z,12.63
2023-05-03T03:56:18.389Z,12.50
2023-05-03T03:58:48.721Z,13.03
2023-05-03T04:01:17.909Z,13.03
2023-05-03T04:03:47.904Z,13.40
2023-05-03T04:06:19.066Z,13.60
2023-05-03T04:08:48.732Z,13.63
2023-05-03T04:11:18.621Z,13.30
2023-05-03T04:13:54.662Z,13.17
2023-05-03T04:16:23.864Z,12.90
2023-05-03T04:18:53.224Z,11.90
2023-05-03T04:21:37.041Z,11.17
2023-05-03T04:24:08.121Z,11.67
2023-05-03T04:26:36.793Z,10.57
2023-05-03T04:29:13.012Z,10.80
2023-05-03T04:31:42.857Z,11.07
2023-05-03T04:34:15.096Z,10.93
2023-05-03T04:36:49.125Z,10.57
2023-05-03T04:39:18.837Z,10.97
2023-05-03T04:41:49.458Z,10.20
2023-05-03T04:44:18.264Z,10.33
2023-05-03T04:46:51.051Z,10.37
2023-05-03T04:49:20.258Z,10.80
2023-05-03T04:51:50.446Z,10.20
2023-05-03T04:54:19.897Z,10.07
2023-05-03T04:56:49.793Z,9.60
2023-05-03T04:59:20.376Z,10.20
2023-05-03T05:01:49.402Z,9.80
2023-05-03T05:04:19.107Z,10.07
2023-05-03T05:06:54.894Z,10.33
2023-05-03T05:09:31.297Z,10.53
2023-05-03T05:12:02.354Z,9.53
2023-05-03T05:14:36.957Z,10.03
2023-05-03T05:17:06.352Z,9.57
2023-05-03T05:19:35.920Z,9.70
2023-05-03T05:22:06.483Z,9.63
2023-05-03T05:24:45.644Z,9.57
2023-05-03T05:27:17.786Z,10.33
2023-05-03T05:29:47.206Z,9.80
2023-05-03T05:32:20.609Z,9.20
2023-05-03T05:34:55.497Z,9.47
2023-05-03T05:37:28.687Z,9.27
2023-05-03T05:40:01.460Z,9.87
2023-05-03T05:42:36.212Z,9.67
2023-05-03T05:45:07.999Z,8.90
2023-05-03T05:47:37.870Z,9.50
2023-05-03T05:50:16.835Z,9.20
2023-05-03T05:52:48.162Z,8.83
2023-05-03T05:55:17.034Z,9.50
2023-05-03T05:57:47.612Z,9.40
2023-05-03T06:00:19.440Z,8.83
2023-05-03T06:02:49.290Z,8.87
2023-05-03T06:05:22.483Z,9.17
2023-05-03T06:07:52.553Z,8.20
2023-05-03T06:10:21.499Z,8.30
2023-05-03T06:12:53.545Z,8.03
2023-05-03T06:15:27.310Z,8.03
2023-05-03T06:17:56.197Z,7.67
2023-05-03T06:20:25.482Z,7.90
2023-05-03T06:22:56.519Z,8.37
2023-05-03T06:25:25.141Z,7.90
2023-05-03T06:27:53.915Z,7.70
2023-05-03T06:30:28.776Z,8.20
2023-05-03T06:33:03.285Z,7.27
2023-05-03T06:35:33.319Z,7.40
2023-05-03T06:38:03.552Z,7.57
2023-05-03T06:40:32.425Z,7.50
2023-05-03T06:43:01.054Z,7.60
2023-05-03T06:45:59.073Z,7.47
2023-05-03T06:48:28.251Z,10.20
2023-05-03T06:50:57.983Z,7.40
2023-05-03T06:53:29.074Z,6.20
2023-05-03T06:55:57.781Z,6.50
2023-05-03T06:58:26.620Z,6.83
2023-05-03T07:00:55.361Z,6.20
2023-05-03T07:03:24.953Z,6.40
2023-05-03T07:05:53.790Z,6.30
2023-05-03T07:08:22.487Z,6.10
2023-05-03T07:10:52.472Z,6.47
2023-05-03T07:13:21.251Z,6.10
2023-05-03T07:15:50.081Z,6.57
2023-05-03T07:18:18.755Z,7.03
2023-05-03T07:20:47.822Z,6.37
2023-05-03T07:23:17.163Z,6.50
2023-05-03T07:25:47.447Z,6.20
2023-05-03T07:28:18.353Z,5.90
2023-05-03T07:30:47.421Z,5.93
2023-05-03T07:33:16.613Z,6.18
2023-05-03T07:35:47.602Z,6.63
2023-05-03T07:38:16.785Z,6.10
2023-05-03T07:40:45.558Z,6.13
2023-05-03T07:43:16.770Z,6.40
2023-05-03T07:45:47.218Z,6.05
2023-05-03T07:48:15.987Z,6.30
2023-05-03T07:50:45.315Z,6.13
2023-05-03T07:53:14.451Z,5.85
2023-05-03T07:55:43.362Z,6.18
2023-05-03T07:58:12.248Z,6.18
2023-05-03T08:00:41.023Z,6.47
2023-05-03T08:03:11.324Z,5.95
2023-05-03T08:05:40.603Z,6.05
2023-05-03T08:08:09.445Z,6.28
2023-05-03T08:10:38.978Z,5.95
2023-05-03T08:13:08.272Z,6.57
2023-05-03T08:15:37.029Z,6.10
2023-05-03T08:18:06.216Z,6.10
2023-05-03T08:20:38.076Z,6.15
2023-05-03T08:23:06.865Z,5.70
2023-05-03T08:25:37.328Z,5.50
2023-05-03T08:28:07.303Z,5.85
2023-05-03T08:30:36.232Z,5.80
2023-05-03T08:33:05.206Z,5.80
2023-05-03T08:35:35.502Z,5.50
2023-05-03T08:38:05.233Z,5.30
2023-05-03T08:40:37.547Z,5.20
2023-05-03T08:43:10.296Z,6.00
2023-05-03T08:45:38.949Z,6.00
2023-05-03T08:48:08.702Z,6.10
2023-05-03T08:50:42.584Z,5.13
2023-05-03T08:53:11.985Z,5.23
2023-05-03T08:55:40.859Z,5.80
2023-05-03T08:58:12.723Z,5.20
2023-05-03T09:00:45.160Z,5.30
2023-05-03T09:03:14.644Z,5.00
2023-05-03T09:05:46.588Z,5.73
2023-05-03T09:08:17.267Z,5.18
2023-05-03T09:10:46.043Z,5.17
2023-05-03T09:13:14.824Z,5.40
2023-05-03T09:15:46.908Z,5.87
2023-05-03T09:18:17.596Z,5.40
2023-05-03T09:20:53.184Z,5.47
2023-05-03T09:23:31.427Z,5.30
2023-05-03T09:26:01.181Z,5.47
2023-05-03T09:28:30.109Z,4.70
2023-05-03T09:31:06.883Z,4.57
2023-05-03T09:33:35.880Z,5.10
2023-05-03T09:36:07.102Z,4.63
2023-05-03T09:38:37.437Z,5.18
2023-05-03T09:41:07.151Z,5.05
2023-05-03T09:43:36.604Z,4.57
2023-05-03T09:46:12.943Z,4.78
2023-05-03T09:48:42.072Z,4.50
2023-05-03T09:51:13.436Z,4.68
2023-05-03T09:53:42.915Z,4.57
2023-05-03T09:56:13.746Z,4.80
2023-05-03T09:58:44.059Z,4.60
2023-05-03T10:01:13.640Z,4.50
2023-05-03T10:03:44.172Z,4.63
2023-05-03T10:06:32.230Z,4.40
2023-05-03T10:09:06.049Z,4.75
2023-05-03T10:11:36.992Z,4.63
2023-05-03T10:14:07.795Z,4.70
2023-05-03T10:16:40.335Z,4.30
2023-05-03T10:19:14.882Z,4.55
2023-05-03T10:21:55.486Z,4.70
2023-05-03T10:24:24.238Z,4.70
2023-05-03T10:26:53.308Z,4.20
2023-05-03T10:29:53.911Z,4.03
2023-05-03T10:32:36.371Z,4.40
2023-05-03T10:35:08.460Z,3.83
2023-05-03T10:37:39.982Z,3.83
2023-05-03T10:40:11.601Z,4.28
2023-05-03T10:42:41.295Z,4.05
2023-05-03T10:45:12.730Z,4.25
2023-05-03T10:47:41.762Z,4.10
2023-05-03T10:50:27.467Z,3.70
2023-05-03T10:52:57.600Z,3.65
2023-05-03T10:55:26.822Z,4.00
2023-05-03T10:57:57.887Z,3.70
2023-05-03T11:00:32.333Z,3.60
2023-05-03T11:03:23.827Z,3.67
2023-05-03T11:05:53.823Z,3.83
2023-05-03T11:08:28.047Z,3.60
2023-05-03T11:11:01.129Z,3.55
2023-05-03T11:13:29.731Z,3.30
2023-05-03T11:15:58.634Z,3.47
2023-05-03T11:18:28.685Z,3.35
2023-05-03T11:20:57.488Z,3.72
2023-05-03T11:23:29.431Z,3.85
2023-05-03T11:25:58.818Z,3.50
2023-05-03T11:28:27.582Z,3.67
2023-05-03T11:30:56.852Z,3.70
2023-05-03T11:33:25.715Z,3.17
2023-05-03T11:35:57.453Z,3.20
2023-05-03T11:38:27.999Z,3.80
2023-05-03T11:40:57.079Z,3.60
2023-05-03T11:43:27.033Z,3.38
2023-05-03T11:45:59.596Z,3.15
2023-05-03T11:48:32.483Z,2.88
2023-05-03T11:51:01.861Z,3.10
2023-05-03T11:53:32.058Z,3.33
2023-05-03T11:56:03.354Z,3.35
2023-05-03T11:58:32.369Z,3.63
2023-05-03T12:01:01.516Z,2.92
2023-05-03T12:03:33.466Z,3.30
2023-05-03T12:06:04.586Z,2.97
2023-05-03T12:08:38.778Z,3.05
2023-05-03T12:11:10.591Z,2.55
2023-05-03T12:13:41.377Z,3.00
2023-05-03T12:16:14.104Z,3.00
2023-05-03T12:18:51.808Z,3.45
2023-05-03T12:23:57.437Z,2.63
2023-05-03T12:26:27.567Z,2.85
2023-05-03T12:28:57.325Z,2.55
2023-05-03T12:31:29.018Z,2.47
2023-05-03T12:36:31.642Z,2.70
2023-05-03T12:39:02.346Z,3.38
2023-05-03T12:44:03.616Z,2.65
2023-05-03T12:46:35.127Z,2.70
2023-05-03T12:49:07.632Z,2.72
2023-05-03T12:51:42.041Z,2.92
2023-05-03T12:54:13.017Z,2.45
2023-05-03T12:56:44.881Z,2.40
2023-05-03T13:04:32.434Z,2.00
2023-05-03T13:07:13.574Z,2.40
2023-05-03T13:12:36.438Z,2.50
2023-05-03T13:15:06.313Z,2.17
2023-05-03T13:17:35.688Z,2.08
2023-05-03T13:20:07.406Z,1.90
2023-05-03T13:22:36.366Z,1.67
2023-05-03T13:25:07.364Z,1.70
2023-05-03T13:27:36.023Z,1.95
2023-05-03T13:30:05.887Z,1.85
2023-05-03T13:32:34.879Z,2.08
2023-05-03T13:35:05.626Z,2.10
2023-05-03T13:37:34.574Z,2.22
2023-05-03T13:40:03.526Z,2.30
2023-05-03T13:42:35.215Z,1.83
2023-05-03T13:45:04.867Z,1.83
2023-05-03T13:47:52.876Z,1.80
2023-05-03T13:50:22.462Z,2.30
2023-05-03T13:52:51.198Z,2.20
2023-05-03T13:55:19.945Z,1.88
2023-05-03T13:57:50.251Z,2.05
2023-05-03T14:00:20.956Z,2.00
2023-05-03T14:02:49.748Z,2.63
2023-05-03T14:05:19.824Z,2.20
2023-05-03T14:07:48.514Z,2.50
2023-05-03T14:10:17.377Z,2.30
2023-05-03T14:12:46.292Z,2.00
2023-05-03T14:15:17.133Z,1.80
2023-05-03T14:17:48.543Z,2.00
2023-05-03T14:20:17.866Z,2.00
2023-05-03T14:22:47.216Z,1.80
2023-05-03T14:25:15.864Z,2.00
2023-05-03T14:27:44.628Z,2.30
2023-05-03T14:30:16.008Z,1.92
2023-05-03T14:32:44.896Z,1.80
2023-05-03T14:35:14.253Z,2.03
2023-05-03T14:37:43.024Z,2.22
2023-05-03T14:40:13.096Z,2.00
2023-05-03T14:42:42.093Z,1.90
2023-05-03T14:45:14.854Z,2.28
2023-05-03T14:47:46.164Z,2.30
2023-05-03T14:50:16.183Z,2.17
2023-05-03T14:52:44.818Z,2.13
2023-05-03T14:55:13.851Z,1.98
2023-05-03T14:57:42.840Z,2.15
2023-05-03T15:00:14.578Z,2.30
2023-05-03T15:02:44.987Z,2.65
2023-05-03T15:05:14.459Z,2.88
2023-05-03T15:07:43.284Z,2.38
2023-05-03T15:10:12.762Z,2.08
2023-05-03T15:12:42.327Z,2.50
2023-05-03T15:15:12.241Z,2.65
2023-05-03T15:17:41.072Z,2.53
2023-05-03T15:20:13.993Z,2.63
2023-05-03T15:22:42.785Z,2.80
2023-05-03T15:25:11.926Z,2.75
2023-05-03T15:27:40.640Z,2.40
2023-05-03T15:30:12.311Z,2.72
2023-05-03T15:32:41.138Z,2.83
2023-05-03T15:35:12.100Z,2.95
2023-05-03T15:37:41.675Z,3.00
2023-05-03T15:40:13.517Z,2.92
2023-05-03T15:42:42.230Z,3.03
2023-05-03T15:45:11.116Z,2.58
2023-05-03T15:47:40.134Z,2.90
2023-05-03T15:50:12.361Z,2.92
2023-05-03T15:52:42.339Z,2.80
2023-05-03T15:55:12.048Z,2.50
2023-05-03T15:57:41.049Z,2.55
2023-05-03T16:00:11.995Z,2.75
2023-05-03T16:02:40.893Z,3.00
2023-05-03T16:05:11.958Z,2.65
2023-05-03T16:07:40.864Z,2.55
2023-05-03T16:10:11.158Z,2.55
2023-05-03T16:12:40.938Z,2.75
2023-05-03T16:15:12.705Z,2.80
2023-05-03T16:17:41.540Z,2.83
2023-05-03T16:20:13.083Z,2.63
2023-05-03T16:22:41.900Z,2.90
2023-05-03T16:25:11.349Z,2.55
2023-05-03T16:27:40.416Z,2.60
2023-05-03T16:30:10.620Z,2.40
2023-05-03T16:32:39.601Z,2.50
2023-05-03T16:35:08.829Z,2.72
2023-05-03T16:37:39.062Z,2.40
2023-05-03T16:40:11.588Z,2.75
2023-05-03T16:42:42.611Z,2.45
2023-05-03T16:45:11.762Z,2.80
2023-05-03T16:47:40.804Z,2.58
2023-05-03T16:50:10.554Z,2.47
2023-05-03T16:52:45.179Z,2.10
2023-05-03T16:55:14.621Z,2.70
2023-05-03T16:57:43.384Z,2.17
2023-05-03T17:00:14.527Z,2.25
2023-05-03T17:02:43.678Z,2.55
2023-05-03T17:05:13.768Z,2.10
2023-05-03T17:07:44.262Z,2.38
2023-05-03T17:10:13.194Z,2.10
2023-05-03T17:12:42.090Z,2.10
2023-05-03T17:15:11.880Z,2.50
2023-05-03T17:17:40.685Z,2.15
2023-05-03T17:20:12.963Z,2.40
2023-05-03T17:22:41.768Z,2.15
2023-05-03T17:25:12.470Z,1.85
2023-05-03T17:27:41.060Z,1.83
2023-05-03T17:30:11.001Z,2.10
2023-05-03T17:32:39.721Z,2.15
2023-05-03T17:35:11.262Z,2.00
2023-05-03T17:37:40.193Z,1.92
2023-05-03T17:40:09.933Z,1.90
2023-05-03T17:42:40.033Z,1.98
2023-05-03T17:45:10.092Z,3.00
2023-05-03T17:47:38.823Z,1.95
2023-05-03T17:50:08.727Z,1.98
2023-05-03T17:52:37.452Z,1.80
2023-05-03T17:55:06.974Z,1.98
2023-05-03T17:57:37.071Z,2.00
2023-05-03T18:00:11.439Z,2.08
2023-05-03T18:02:40.121Z,2.00
2023-05-03T18:05:09.369Z,2.00
2023-05-03T18:07:38.100Z,2.00
2023-05-03T18:10:07.962Z,2.20
2023-05-03T18:12:36.882Z,1.85
2023-05-03T18:15:09.129Z,2.13
2023-05-03T18:17:37.767Z,2.20
2023-05-03T18:20:07.685Z,2.30
2023-05-03T18:22:36.318Z,2.40
2023-05-03T18:25:07.549Z,2.40
2023-05-03T18:27:37.866Z,2.45
2023-05-03T18:30:10.554Z,2.40
2023-05-03T18:32:39.438Z,2.60
2023-05-03T18:35:08.655Z,2.70
2023-05-03T18:37:37.428Z,2.55
2023-05-03T18:40:07.095Z,2.60
2023-05-03T18:42:36.055Z,2.72
2023-05-03T18:45:05.067Z,2.67
2023-05-03T18:47:35.279Z,2.70
2023-05-03T18:50:04.766Z,2.88
2023-05-03T18:52:33.684Z,2.80
2023-05-03T18:55:02.557Z,2.95
2023-05-03T18:57:31.192Z,2.72
2023-05-03T19:00:01.485Z,2.65
2023-05-03T19:02:31.729Z,3.10
2023-05-03T19:05:02.189Z,3.08
2023-05-03T19:07:31.969Z,3.30
2023-05-03T19:10:01.138Z,3.30
2023-05-03T19:12:30.142Z,3.60
2023-05-03T19:14:58.831Z,3.40
2023-05-03T19:17:27.541Z,3.50
2023-05-03T19:19:56.304Z,3.58
2023-05-03T19:22:26.618Z,3.53
2023-05-03T19:24:55.343Z,3.33
2023-05-03T19:27:23.920Z,3.58
2023-05-03T19:29:55.688Z,3.50
2023-05-03T19:32:24.345Z,3.40
2023-05-03T19:34:53.010Z,3.43
2023-05-03T19:37:21.785Z,3.60
2023-05-03T19:39:55.790Z,3.50
2023-05-03T19:42:24.537Z,3.40
2023-05-03T19:44:53.219Z,3.63
2023-05-03T19:47:21.830Z,3.37
2023-05-03T19:49:50.448Z,3.47
2023-05-03T19:52:18.963Z,3.60
2023-05-03T19:54:47.650Z,3.57
2023-05-03T19:57:18.701Z,3.70
2023-05-03T19:59:49.422Z,3.90
2023-05-03T20:02:18.605Z,3.60
2023-05-03T20:04:48.366Z,3.73
2023-05-03T20:07:17.219Z,3.63
2023-05-03T20:09:45.931Z,3.53
2023-05-03T20:12:43.629Z,3.93
2023-05-03T20:15:13.006Z,3.90
2023-05-03T20:17:41.777Z,3.67
2023-05-03T20:20:12.189Z,4.00
2023-05-03T20:22:40.991Z,3.43
2023-05-03T20:25:14.494Z,3.70
2023-05-03T20:27:47.006Z,3.70
2023-05-03T20:30:15.807Z,3.87
2023-05-03T20:32:44.561Z,3.67
2023-05-03T20:35:13.559Z,3.90
2023-05-03T20:37:42.502Z,3.80
2023-05-03T20:40:14.265Z,3.63
2023-05-03T20:42:44.457Z,4.20
2023-05-03T20:45:14.711Z,4.00
2023-05-03T20:47:43.872Z,3.80
2023-05-03T20:50:13.046Z,4.10
2023-05-03T20:52:47.967Z,4.37
2023-05-03T20:55:16.873Z,4.10
2023-05-03T20:57:47.083Z,4.10
2023-05-03T21:00:17.025Z,4.43
2023-05-03T21:02:46.630Z,4.30
2023-05-03T21:05:15.379Z,3.93
2023-05-03T21:07:44.039Z,3.97
2023-05-03T21:10:12.689Z,3.90
2023-05-03T21:12:41.454Z,4.10
2023-05-03T21:15:12.844Z,4.20
2023-05-03T21:17:41.510Z,4.10
2023-05-03T21:20:11.642Z,3.93
2023-05-03T21:22:40.451Z,4.30
2023-05-03T21:25:10.160Z,4.00
2023-05-03T21:27:38.836Z,4.00
2023-05-03T21:30:08.884Z,4.40
2023-05-03T21:32:39.350Z,4.00
2023-05-03T21:35:09.636Z,4.03
2023-05-03T21:37:38.365Z,4.10
2023-05-03T21:40:08.734Z,4.20
2023-05-03T21:42:37.611Z,4.03
2023-05-03T21:45:07.300Z,4.30
2023-05-03T21:47:35.910Z,4.90
2023-05-03T21:50:08.058Z,4.13
2023-05-03T21:52:38.544Z,4.40
2023-05-03T21:55:08.465Z,4.30
2023-05-03T21:57:37.216Z,4.17
2023-05-03T22:00:07.670Z,4.00
2023-05-03T22:02:37.146Z,4.50
2023-05-03T22:05:07.801Z,4.23
2023-05-03T22:07:36.570Z,4.40
2023-05-03T22:10:05.888Z,4.57
2023-05-03T22:12:34.837Z,4.50
2023-05-03T22:15:04.204Z,4.40
2023-05-03T22:17:33.251Z,4.80
2023-05-03T22:20:02.032Z,5.03
2023-05-03T22:22:32.473Z,4.90
2023-05-03T22:25:02.574Z,5.10
2023-05-03T22:27:31.334Z,5.00
2023-05-03T22:30:00.163Z,5.30
2023-05-03T22:32:28.966Z,4.80
2023-05-03T22:34:57.653Z,5.20
2023-05-03T22:37:26.511Z,4.87
2023-05-03T22:39:56.560Z,4.83
2023-05-03T22:42:25.309Z,4.73
2023-05-03T22:44:55.814Z,4.47
2023-05-03T22:47:25.680Z,4.97
2023-05-03T22:49:54.566Z,5.03
2023-05-03T22:52:23.224Z,5.00
2023-05-03T22:54:58.178Z,5.20
2023-05-03T22:57:26.867Z,4.93
2023-05-03T22:59:55.518Z,5.10
2023-05-03T23:02:24.295Z,5.27
2023-05-03T23:04:53.234Z,4.97
2023-05-03T23:07:21.909Z,5.73
2023-05-03T23:09:50.817Z,5.60
2023-05-03T23:12:20.858Z,5.33
2023-05-03T23:14:49.595Z,5.50
2023-05-03T23:17:18.252Z,5.63
2023-05-03T23:19:46.821Z,5.43
2023-05-03T23:22:15.882Z,5.77
2023-05-03T23:24:44.471Z,5.87
2023-05-03T23:27:13.310Z,6.10
2023-05-03T23:29:44.315Z,6.03
2023-05-03T23:32:13.565Z,5.90
2023-05-03T23:34:42.853Z,6.30
2023-05-03T23:37:11.372Z,6.17
2023-05-03T23:39:44.484Z,6.83
2023-05-03T23:42:13.477Z,6.80
2023-05-03T23:44:54.364Z,6.93
2023-05-03T23:47:24.358Z,6.87
2023-05-03T23:49:53.417Z,7.33
2023-05-03T23:52:22.113Z,6.80
2023-05-03T23:54:50.853Z,7.17
2023-05-03T23:57:19.461Z,6.90
2023-05-03T23:59:49.840Z,7.17
